sensor_id;sensor_type;location;lat;lon;timestamp;pressure;altitude;pressure_sealevel;temperature;humidity
49843;BME280;55559;48.898;9.184;2023-01-29T00:02:20;99550.66;;;-0.66;100.00
49843;BME280;55559;48.898;9.184;2023-01-29T00:04:49;99551.31;;;-0.59;100.00
49843;BME280;55559;48.898;9.184;2023-01-29T00:07:16;99555.81;;;-0.64;100.00
49843;BME280;55559;48.898;9.184;2023-01-29T00:09:43;99556.69;;;-0.64;100.00
49843;BME280;55559;48.898;9.184;2023-01-29T00:12:11;99552.38;;;-0.66;100.00
49843;BME280;55559;48.898;9.184;2023-01-29T00:14:38;99549.75;;;-0.65;100.00
49843;BME280;55559;48.898;9.184;2023-01-29T00:17:06;99548.09;;;-0.67;100.00
49843;BME280;55559;48.898;9.184;2023-01-29T00:19:34;99552.34;;;-0.65;100.00
49843;BME280;55559;48.898;9.184;2023-01-29T00:22:03;99553.13;;;-0.61;100.00
49843;BME280;55559;48.898;9.184;2023-01-29T00:24:30;99563.06;;;-0.74;100.00
49843;BME280;55559;48.898;9.184;2023-01-29T00:26:58;99550.88;;;-0.75;100.00
49843;BME280;55559;48.898;9.184;2023-01-29T00:29:25;99551.66;;;-0.71;100.00
49843;BME280;55559;48.898;9.184;2023-01-29T00:32:17;99549.78;;;-0.66;100.00
49843;BME280;55559;48.898;9.184;2023-01-29T00:34:45;99545.59;;;-0.72;100.00
49843;BME280;55559;48.898;9.184;2023-01-29T00:37:16;99544.78;;;-0.74;100.00
49843;BME280;55559;48.898;9.184;2023-01-29T00:39:44;99540.34;;;-0.72;100.00
49843;BME280;55559;48.898;9.184;2023-01-29T00:42:11;99540.31;;;-0.70;100.00
49843;BME280;55559;48.898;9.184;2023-01-29T00:44:56;99541.06;;;-0.65;100.00
49843;BME280;55559;48.898;9.184;2023-01-29T00:47:24;99546.34;;;-0.68;100.00
49843;BME280;55559;48.898;9.184;2023-01-29T00:50:01;99552.59;;;-0.74;100.00
49843;BME280;55559;48.898;9.184;2023-01-29T00:52:30;99553.50;;;-0.75;100.00
49843;BME280;55559;48.898;9.184;2023-01-29T00:54:59;99549.78;;;-0.66;100.00
49843;BME280;55559;48.898;9.184;2023-01-29T00:57:28;99543.72;;;-0.67;100.00
49843;BME280;55559;48.898;9.184;2023-01-29T00:59:56;99552.44;;;-0.68;100.00
49843;BME280;55559;48.898;9.184;2023-01-29T01:02:24;99553.31;;;-0.67;100.00
49843;BME280;55559;48.898;9.184;2023-01-29T01:05:10;99549.03;;;-0.71;100.00
49843;BME280;55559;48.898;9.184;2023-01-29T01:07:40;99548.25;;;-0.75;100.00
49843;BME280;55559;48.898;9.184;2023-01-29T01:10:11;99556.09;;;-0.75;100.00
49843;BME280;55559;48.898;9.184;2023-01-29T01:12:48;99541.28;;;-0.75;100.00
49843;BME280;55559;48.898;9.184;2023-01-29T01:15:17;99541.28;;;-0.75;100.00
49843;BME280;55559;48.898;9.184;2023-01-29T01:17:44;99547.41;;;-0.76;100.00
49843;BME280;55559;48.898;9.184;2023-01-29T01:20:13;99541.31;;;-0.76;100.00
49843;BME280;55559;48.898;9.184;2023-01-29T01:22:42;99536.06;;;-0.75;100.00
49843;BME280;55559;48.898;9.184;2023-01-29T01:25:10;99537.78;;;-0.73;100.00
49843;BME280;55559;48.898;9.184;2023-01-29T01:27:37;99542.16;;;-0.74;100.00
49843;BME280;55559;48.898;9.184;2023-01-29T01:30:09;99539.53;;;-0.74;100.00
49843;BME280;55559;48.898;9.184;2023-01-29T01:32:38;99536.06;;;-0.75;100.00
49843;BME280;55559;48.898;9.184;2023-01-29T01:35:07;99556.38;;;-0.86;100.00
49843;BME280;55559;48.898;9.184;2023-01-29T01:37:35;99554.59;;;-0.84;100.00
49843;BME280;55559;48.898;9.184;2023-01-29T01:40:16;99555.38;;;-0.80;100.00
49843;BME280;55559;48.898;9.184;2023-01-29T01:42:46;99551.22;;;-0.89;100.00
49843;BME280;55559;48.898;9.184;2023-01-29T01:45:18;99544.94;;;-0.82;100.00
49843;BME280;55559;48.898;9.184;2023-01-29T01:47:48;99543.22;;;-0.83;100.00
49843;BME280;55559;48.898;9.184;2023-01-29T01:50:26;99548.56;;;-0.86;100.00
49843;BME280;55559;48.898;9.184;2023-01-29T01:53:01;99553.78;;;-0.86;100.00
49843;BME280;55559;48.898;9.184;2023-01-29T01:55:33;99546.19;;;-0.97;100.00
49843;BME280;55559;48.898;9.184;2023-01-29T01:58:06;99541.06;;;-1.01;100.00
49843;BME280;55559;48.898;9.184;2023-01-29T02:00:37;99544.38;;;-0.95;100.00
49843;BME280;55559;48.898;9.184;2023-01-29T02:03:05;99540.16;;;-0.99;100.00
49843;BME280;55559;48.898;9.184;2023-01-29T02:05:52;99543.69;;;-1.01;100.00
49843;BME280;55559;48.898;9.184;2023-01-29T02:08:46;99546.50;;;-1.09;100.00
49843;BME280;55559;48.898;9.184;2023-01-29T02:11:36;99552.75;;;-1.16;100.00
49843;BME280;55559;48.898;9.184;2023-01-29T02:14:04;99549.13;;;-1.10;100.00
49843;BME280;55559;48.898;9.184;2023-01-29T02:16:33;99553.31;;;-1.03;100.00
49843;BME280;55559;48.898;9.184;2023-01-29T02:19:04;99546.56;;;-1.12;100.00
49843;BME280;55559;48.898;9.184;2023-01-29T02:21:54;99548.16;;;-1.06;100.00
49843;BME280;55559;48.898;9.184;2023-01-29T02:25:00;99551.69;;;-1.07;100.00
49843;BME280;55559;48.898;9.184;2023-01-29T02:27:59;99556.09;;;-1.09;100.00
49843;BME280;55559;48.898;9.184;2023-01-29T02:30:33;99556.09;;;-1.09;100.00
49843;BME280;55559;48.898;9.184;2023-01-29T02:33:07;99550.16;;;-1.16;100.00
49843;BME280;55559;48.898;9.184;2023-01-29T02:35:42;99542.28;;;-1.15;100.00
49843;BME280;55559;48.898;9.184;2023-01-29T02:38:17;99537.09;;;-1.16;100.00
49843;BME280;55559;48.898;9.184;2023-01-29T02:40:50;99542.19;;;-1.12;100.00
49843;BME280;55559;48.898;9.184;2023-01-29T02:43:28;99545.72;;;-1.13;100.00
49843;BME280;55559;48.898;9.184;2023-01-29T02:46:05;99557.28;;;-1.23;100.00
49843;BME280;55559;48.898;9.184;2023-01-29T02:48:40;99551.88;;;-1.17;100.00
49843;BME280;55559;48.898;9.184;2023-01-29T02:51:17;99539.72;;;-1.16;100.00
49843;BME280;55559;48.898;9.184;2023-01-29T02:53:50;99534.50;;;-1.16;100.00
49843;BME280;55559;48.898;9.184;2023-01-29T02:56:25;99529.25;;;-1.15;100.00
49843;BME280;55559;48.898;9.184;2023-01-29T02:58:58;99541.34;;;-1.12;100.00
49843;BME280;55559;48.898;9.184;2023-01-29T03:01:30;99549.28;;;-1.17;100.00
49843;BME280;55559;48.898;9.184;2023-01-29T03:04:05;99542.44;;;-1.21;100.00
49843;BME280;55559;48.898;9.184;2023-01-29T03:06:37;99544.09;;;-1.18;100.00
49843;BME280;55559;48.898;9.184;2023-01-29T03:09:08;99540.69;;;-1.22;100.00
49843;BME280;55559;48.898;9.184;2023-01-29T03:12:06;99540.00;;;-1.30;100.00
49843;BME280;55559;48.898;9.184;2023-01-29T03:14:56;99539.06;;;-1.26;100.00
49843;BME280;55559;48.898;9.184;2023-01-29T03:17:51;99537.19;;;-1.21;100.00
49843;BME280;55559;48.898;9.184;2023-01-29T03:20:22;99536.34;;;-1.21;100.00
49843;BME280;55559;48.898;9.184;2023-01-29T03:22:55;99537.34;;;-1.27;100.00
49843;BME280;55559;48.898;9.184;2023-01-29T03:25:27;99538.22;;;-1.26;100.00
49843;BME280;55559;48.898;9.184;2023-01-29T03:28:16;99545.34;;;-1.33;100.00
49843;BME280;55559;48.898;9.184;2023-01-29T03:31:05;99544.41;;;-1.32;100.00
49843;BME280;55559;48.898;9.184;2023-01-29T03:33:59;99539.03;;;-1.24;100.00
49843;BME280;55559;48.898;9.184;2023-01-29T03:36:32;99535.72;;;-1.31;100.00
49843;BME280;55559;48.898;9.184;2023-01-29T03:39:06;99539.97;;;-1.28;100.00
49843;BME280;55559;48.898;9.184;2023-01-29T03:41:39;99532.28;;;-1.33;100.00
49843;BME280;55559;48.898;9.184;2023-01-29T03:44:14;99535.84;;;-1.37;100.00
49843;BME280;55559;48.898;9.184;2023-01-29T03:46:49;99536.56;;;-1.31;100.00
49843;BME280;55559;48.898;9.184;2023-01-29T03:49:26;99542.63;;;-1.30;100.00
49843;BME280;55559;48.898;9.184;2023-01-29T03:52:01;99540.06;;;-1.32;100.00
49843;BME280;55559;48.898;9.184;2023-01-29T03:54:39;99546.19;;;-1.33;100.00
49843;BME280;55559;48.898;9.184;2023-01-29T03:57:14;99537.50;;;-1.33;100.00
49843;BME280;55559;48.898;9.184;2023-01-29T03:59:51;99543.78;;;-1.43;100.00
49843;BME280;55559;48.898;9.184;2023-01-29T04:02:45;99550.78;;;-1.44;100.00
49843;BME280;55559;48.898;9.184;2023-01-29T04:05:16;99549.91;;;-1.43;100.00
49843;BME280;55559;48.898;9.184;2023-01-29T04:08:07;99541.03;;;-1.36;100.00
49843;BME280;55559;48.898;9.184;2023-01-29T04:10:38;99546.34;;;-1.40;100.00
49843;BME280;55559;48.898;9.184;2023-01-29T04:13:09;99542.00;;;-1.40;100.00
49843;BME280;55559;48.898;9.184;2023-01-29T04:15:43;99544.72;;;-1.44;100.00
49843;BME280;55559;48.898;9.184;2023-01-29T04:18:14;99543.84;;;-1.45;100.00
49843;BME280;55559;48.898;9.184;2023-01-29T04:21:04;99556.00;;;-1.44;100.00
49843;BME280;55559;48.898;9.184;2023-01-29T04:23:33;99550.81;;;-1.45;100.00
49843;BME280;55559;48.898;9.184;2023-01-29T04:26:20;99551.81;;;-1.51;100.00
49843;BME280;55559;48.898;9.184;2023-01-29T04:29:02;99542.16;;;-1.47;100.00
49843;BME280;55559;48.898;9.184;2023-01-29T04:31:36;99546.59;;;-1.51;100.00
49843;BME280;55559;48.898;9.184;2023-01-29T04:34:14;99556.16;;;-1.50;100.00
49843;BME280;55559;48.898;9.184;2023-01-29T04:36:49;99553.44;;;-1.47;100.00
49843;BME280;55559;48.898;9.184;2023-01-29T04:39:25;99553.44;;;-1.47;100.00
49843;BME280;55559;48.898;9.184;2023-01-29T04:42:04;99554.34;;;-1.48;100.00
49843;BME280;55559;48.898;9.184;2023-01-29T04:44:38;99551.94;;;-1.57;100.00
49843;BME280;55559;48.898;9.184;2023-01-29T04:47:16;99564.97;;;-1.57;100.00
49843;BME280;55559;48.898;9.184;2023-01-29T04:49:52;99562.69;;;-1.71;100.00
49843;BME280;55559;48.898;9.184;2023-01-29T04:52:31;99552.91;;;-1.61;100.00
49843;BME280;55559;48.898;9.184;2023-01-29T04:55:04;99555.50;;;-1.60;100.00
49843;BME280;55559;48.898;9.184;2023-01-29T04:57:35;99551.81;;;-1.51;100.00
49843;BME280;55559;48.898;9.184;2023-01-29T05:00:11;99558.09;;;-1.60;100.00
49843;BME280;55559;48.898;9.184;2023-01-29T05:02:42;99561.63;;;-1.62;100.00
49843;BME280;55559;48.898;9.184;2023-01-29T05:05:13;99556.97;;;-1.48;100.00
49843;BME280;55559;48.898;9.184;2023-01-29T05:07:43;99550.06;;;-1.51;100.00
49843;BME280;55559;48.898;9.184;2023-01-29T05:10:12;99546.34;;;-1.40;100.00
49843;BME280;55559;48.898;9.184;2023-01-29T05:12:43;99551.03;;;-1.55;100.00
49843;BME280;55559;48.898;9.184;2023-01-29T05:15:16;99539.84;;;-1.60;100.00
49843;BME280;55559;48.898;9.184;2023-01-29T05:17:45;99548.50;;;-1.59;100.00
49843;BME280;55559;48.898;9.184;2023-01-29T05:20:14;99542.38;;;-1.57;100.00
49843;BME280;55559;48.898;9.184;2023-01-29T05:22:41;99553.56;;;-1.52;100.00
49843;BME280;55559;48.898;9.184;2023-01-29T05:25:19;99558.78;;;-1.52;100.00
49843;BME280;55559;48.898;9.184;2023-01-29T05:27:49;99565.72;;;-1.52;100.00
49843;BME280;55559;48.898;9.184;2023-01-29T05:30:32;99562.31;;;-1.54;100.00
49843;BME280;55559;48.898;9.184;2023-01-29T05:33:00;99558.84;;;-1.55;100.00
49843;BME280;55559;48.898;9.184;2023-01-29T05:35:29;99558.13;;;-1.61;100.00
49843;BME280;55559;48.898;9.184;2023-01-29T05:37:56;99552.22;;;-1.70;100.00
49843;BME280;55559;48.898;9.184;2023-01-29T05:40:24;99548.59;;;-1.64;100.00
49843;BME280;55559;48.898;9.184;2023-01-29T05:42:52;99539.13;;;-1.66;100.00
49843;BME280;55559;48.898;9.184;2023-01-29T05:45:19;99526.88;;;-1.64;100.00
49843;BME280;55559;48.898;9.184;2023-01-29T05:47:47;99521.66;;;-1.63;100.00
49843;BME280;55559;48.898;9.184;2023-01-29T05:50:15;99508.84;;;-1.74;100.00
49843;BME280;55559;48.898;9.184;2023-01-29T05:52:44;99497.50;;;-1.73;100.00
49843;BME280;55559;48.898;9.184;2023-01-29T05:55:12;99507.91;;;-1.71;100.00
49843;BME280;55559;48.898;9.184;2023-01-29T05:57:40;99519.09;;;-1.66;100.00
49843;BME280;55559;48.898;9.184;2023-01-29T06:00:08;99522.88;;;-1.79;100.00
49843;BME280;55559;48.898;9.184;2023-01-29T06:02:40;99527.16;;;-1.77;100.00
49843;BME280;55559;48.898;9.184;2023-01-29T06:05:08;99527.09;;;-1.74;100.00
49843;BME280;55559;48.898;9.184;2023-01-29T06:07:35;99517.63;;;-1.78;100.00
49843;BME280;55559;48.898;9.184;2023-01-29T06:10:07;99512.44;;;-1.79;100.00
49843;BME280;55559;48.898;9.184;2023-01-29T06:12:35;99532.50;;;-1.83;100.00
49843;BME280;55559;48.898;9.184;2023-01-29T06:15:02;99531.50;;;-1.77;100.00
49843;BME280;55559;48.898;9.184;2023-01-29T06:17:30;99525.34;;;-1.73;100.00
49843;BME280;55559;48.898;9.184;2023-01-29T06:19:57;99520.16;;;-1.75;100.00
49843;BME280;55559;48.898;9.184;2023-01-29T06:22:25;99536.66;;;-1.74;100.00
49843;BME280;55559;48.898;9.184;2023-01-29T06:24:52;99532.31;;;-1.74;100.00
49843;BME280;55559;48.898;9.184;2023-01-29T06:27:21;99524.38;;;-1.69;100.00
49843;BME280;55559;48.898;9.184;2023-01-29T06:29:49;99524.84;;;-1.91;100.00
49843;BME280;55559;48.898;9.184;2023-01-29T06:32:16;99529.84;;;-1.80;100.00
49843;BME280;55559;48.898;9.184;2023-01-29T06:34:44;99529.00;;;-1.80;100.00
49843;BME280;55559;48.898;9.184;2023-01-29T06:37:11;99530.84;;;-1.85;100.00
49843;BME280;55559;48.898;9.184;2023-01-29T06:39:39;99527.25;;;-1.81;100.00
49843;BME280;55559;48.898;9.184;2023-01-29T06:42:07;99529.81;;;-1.78;100.00
49843;BME280;55559;48.898;9.184;2023-01-29T06:44:37;99527.97;;;-1.73;100.00
49843;BME280;55559;48.898;9.184;2023-01-29T06:47:04;99533.13;;;-1.70;100.00
49843;BME280;55559;48.898;9.184;2023-01-29T06:49:32;99534.97;;;-1.75;100.00
49843;BME280;55559;48.898;9.184;2023-01-29T06:51:59;99535.88;;;-1.78;100.00
49843;BME280;55559;48.898;9.184;2023-01-29T06:54:27;99544.56;;;-1.79;100.00
49843;BME280;55559;48.898;9.184;2023-01-29T06:56:54;99542.94;;;-1.83;100.00
49843;BME280;55559;48.898;9.184;2023-01-29T06:59:21;99547.84;;;-1.69;100.00
49843;BME280;55559;48.898;9.184;2023-01-29T07:01:50;99544.44;;;-1.73;100.00
49843;BME280;55559;48.898;9.184;2023-01-29T07:04:18;99543.53;;;-1.70;100.00
49843;BME280;55559;48.898;9.184;2023-01-29T07:06:45;99549.75;;;-1.77;100.00
49843;BME280;55559;48.898;9.184;2023-01-29T07:09:13;99543.59;;;-1.73;100.00
49843;BME280;55559;48.898;9.184;2023-01-29T07:11:40;99542.56;;;-1.66;100.00
49843;BME280;55559;48.898;9.184;2023-01-29T07:14:07;99555.56;;;-1.63;100.00
49843;BME280;55559;48.898;9.184;2023-01-29T07:16:35;99552.94;;;-1.63;100.00
49843;BME280;55559;48.898;9.184;2023-01-29T07:19:04;99552.16;;;-1.66;100.00
49843;BME280;55559;48.898;9.184;2023-01-29T07:21:50;99550.13;;;-1.54;100.00
49843;BME280;55559;48.898;9.184;2023-01-29T07:24:17;99556.25;;;-1.55;100.00
49843;BME280;55559;48.898;9.184;2023-01-29T07:26:45;99560.41;;;-1.46;100.00
49843;BME280;55559;48.898;9.184;2023-01-29T07:29:12;99560.22;;;-1.38;100.00
49843;BME280;55559;48.898;9.184;2023-01-29T07:31:40;99566.97;;;-1.28;100.00
49843;BME280;55559;48.898;9.184;2023-01-29T07:34:09;99563.66;;;-1.36;100.00
49843;BME280;55559;48.898;9.184;2023-01-29T07:36:36;99559.31;;;-1.37;100.00
49843;BME280;55559;48.898;9.184;2023-01-29T07:39:22;99569.72;;;-1.36;100.00
49843;BME280;55559;48.898;9.184;2023-01-29T07:41:49;99573.09;;;-1.31;100.00
49843;BME280;55559;48.898;9.184;2023-01-29T07:44:17;99580.91;;;-1.31;100.00
49843;BME280;55559;48.898;9.184;2023-01-29T07:46:44;99580.22;;;-1.39;100.00
49843;BME280;55559;48.898;9.184;2023-01-29T07:49:13;99571.50;;;-1.36;100.00
49843;BME280;55559;48.898;9.184;2023-01-29T07:52:00;99587.84;;;-1.28;100.00
49843;BME280;55559;48.898;9.184;2023-01-29T07:54:27;99585.22;;;-1.28;100.00
49843;BME280;55559;48.898;9.184;2023-01-29T07:56:55;99584.50;;;-1.35;100.00
49843;BME280;55559;48.898;9.184;2023-01-29T07:59:40;99586.97;;;-1.30;100.00
49843;BME280;55559;48.898;9.184;2023-01-29T08:02:09;99593.94;;;-1.29;100.00
49843;BME280;55559;48.898;9.184;2023-01-29T08:04:37;99586.72;;;-1.18;100.00
49843;BME280;55559;48.898;9.184;2023-01-29T08:07:05;99580.53;;;-1.14;100.00
49843;BME280;55559;48.898;9.184;2023-01-29T08:09:34;99588.72;;;-1.29;100.00
49843;BME280;55559;48.898;9.184;2023-01-29T08:12:20;99584.31;;;-1.27;100.00
49843;BME280;55559;48.898;9.184;2023-01-29T08:14:47;99590.19;;;-1.17;100.00
49843;BME280;55559;48.898;9.184;2023-01-29T08:17:15;99588.28;;;-1.10;100.00
49843;BME280;55559;48.898;9.184;2023-01-29T08:19:44;99598.91;;;-1.18;100.00
49843;BME280;55559;48.898;9.184;2023-01-29T08:22:11;99604.09;;;-1.17;100.00
49843;BME280;55559;48.898;9.184;2023-01-29T08:24:40;99599.75;;;-1.16;100.00
49843;BME280;55559;48.898;9.184;2023-01-29T08:27:08;99606.53;;;-1.09;100.00
49843;BME280;55559;48.898;9.184;2023-01-29T08:29:35;99590.72;;;-1.03;100.00
49843;BME280;55559;48.898;9.184;2023-01-29T08:32:02;99603.91;;;-1.09;100.00
49843;BME280;55559;48.898;9.184;2023-01-29T08:34:30;99611.06;;;-1.17;100.00
49843;BME280;55559;48.898;9.184;2023-01-29T08:36:59;99606.91;;;-1.26;100.00
49843;BME280;55559;48.898;9.184;2023-01-29T08:39:26;99602.13;;;-1.07;100.00
49843;BME280;55559;48.898;9.184;2023-01-29T08:41:54;99595.63;;;-0.89;100.00
49843;BME280;55559;48.898;9.184;2023-01-29T08:44:21;99606.03;;;-0.87;100.00
49843;BME280;55559;48.898;9.184;2023-01-29T08:46:48;99606.78;;;-0.82;100.00
49843;BME280;55559;48.898;9.184;2023-01-29T08:49:16;99605.78;;;-0.78;100.00
49843;BME280;55559;48.898;9.184;2023-01-29T08:51:43;99607.28;;;-0.68;100.00
49843;BME280;55559;48.898;9.184;2023-01-29T08:54:12;99608.56;;;-0.84;100.00
49843;BME280;55559;48.898;9.184;2023-01-29T08:56:40;99606.81;;;-0.84;100.00
49843;BME280;55559;48.898;9.184;2023-01-29T08:59:26;99595.25;;;-0.73;100.00
49843;BME280;55559;48.898;9.184;2023-01-29T09:01:53;99605.41;;;-0.63;100.00
49843;BME280;55559;48.898;9.184;2023-01-29T09:04:21;99615.38;;;-0.43;100.00
49843;BME280;55559;48.898;9.184;2023-01-29T09:06:49;99610.72;;;-0.31;100.00
49843;BME280;55559;48.898;9.184;2023-01-29T09:09:17;99610.00;;;-0.36;100.00
49843;BME280;55559;48.898;9.184;2023-01-29T09:11:44;99616.19;;;-0.41;100.00
49843;BME280;55559;48.898;9.184;2023-01-29T09:14:12;99611.56;;;-0.31;100.00
49843;BME280;55559;48.898;9.184;2023-01-29T09:16:40;99617.69;;;-0.30;100.00
49843;BME280;55559;48.898;9.184;2023-01-29T09:19:08;99621.81;;;-0.22;100.00
49843;BME280;55559;48.898;9.184;2023-01-29T09:21:35;99618.09;;;-0.13;100.00
49843;BME280;55559;48.898;9.184;2023-01-29T09:24:03;99621.66;;;-0.17;100.00
49843;BME280;55559;48.898;9.184;2023-01-29T09:26:32;99619.78;;;-0.12;100.00
49843;BME280;55559;48.898;9.184;2023-01-29T09:29:00;99627.63;;;-0.12;100.00
49843;BME280;55559;48.898;9.184;2023-01-29T09:31:27;99632.63;;;-0.03;100.00
49843;BME280;55559;48.898;9.184;2023-01-29T09:33:55;99620.66;;;0.20;100.00
49843;BME280;55559;48.898;9.184;2023-01-29T09:36:23;99620.94;;;0.11;100.00
49843;BME280;55559;48.898;9.184;2023-01-29T09:38:50;99609.16;;;0.27;100.00
49843;BME280;55559;48.898;9.184;2023-01-29T09:41:26;99603.75;;;0.32;100.00
49843;BME280;55559;48.898;9.184;2023-01-29T09:43:59;99601.69;;;0.43;100.00
49843;BME280;55559;48.898;9.184;2023-01-29T09:46:34;99590.50;;;0.68;100.00
49843;BME280;55559;48.898;9.184;2023-01-29T09:49:06;99576.13;;;0.81;100.00
49843;BME280;55559;48.898;9.184;2023-01-29T09:51:40;99577.09;;;1.05;100.00
49843;BME280;55559;48.898;9.184;2023-01-29T09:54:15;99579.09;;;1.25;100.00
49843;BME280;55559;48.898;9.184;2023-01-29T09:56:45;99556.00;;;1.37;100.00
49843;BME280;55559;48.898;9.184;2023-01-29T09:59:17;99541.38;;;1.29;100.00
49843;BME280;55559;48.898;9.184;2023-01-29T10:01:52;99547.50;;;1.55;100.00
49843;BME280;55559;48.898;9.184;2023-01-29T10:04:34;99544.31;;;1.72;100.00
49843;BME280;55559;48.898;9.184;2023-01-29T10:07:19;99541.28;;;1.58;100.00
49843;BME280;55559;48.898;9.184;2023-01-29T10:10:03;99555.47;;;1.77;100.00
49843;BME280;55559;48.898;9.184;2023-01-29T10:12:44;99551.81;;;1.56;100.00
49843;BME280;55559;48.898;9.184;2023-01-29T10:15:27;99549.47;;;1.74;100.00
49843;BME280;55559;48.898;9.184;2023-01-29T10:18:15;99546.47;;;1.84;100.00
49843;BME280;55559;48.898;9.184;2023-01-29T10:20:57;99544.97;;;2.02;100.00
49843;BME280;55559;48.898;9.184;2023-01-29T10:23:31;99559.03;;;2.00;100.00
49843;BME280;55559;48.898;9.184;2023-01-29T10:26:00;99558.63;;;2.11;100.00
49843;BME280;55559;48.898;9.184;2023-01-29T10:28:30;99554.13;;;1.91;100.00
49843;BME280;55559;48.898;9.184;2023-01-29T10:31:05;99551.66;;;1.36;100.00
49843;BME280;55559;48.898;9.184;2023-01-29T10:33:38;99552.03;;;1.50;100.00
49843;BME280;55559;48.898;9.184;2023-01-29T10:36:13;99552.97;;;1.74;100.00
49843;BME280;55559;48.898;9.184;2023-01-29T10:38:44;99550.22;;;2.02;100.00
49843;BME280;55559;48.898;9.184;2023-01-29T10:41:35;99557.00;;;2.08;100.00
49843;BME280;55559;48.898;9.184;2023-01-29T10:44:10;99559.50;;;2.11;100.00
49843;BME280;55559;48.898;9.184;2023-01-29T10:46:51;99561.56;;;2.27;100.00
49843;BME280;55559;48.898;9.184;2023-01-29T10:49:36;99551.63;;;2.11;100.00
49843;BME280;55559;48.898;9.184;2023-01-29T10:52:19;99540.56;;;2.27;100.00
49843;BME280;55559;48.898;9.184;2023-01-29T10:55:02;99544.97;;;2.26;100.00
49843;BME280;55559;48.898;9.184;2023-01-29T10:57:43;99550.47;;;1.95;100.00
49843;BME280;55559;48.898;9.184;2023-01-29T11:00:19;99553.13;;;1.70;100.00
49843;BME280;55559;48.898;9.184;2023-01-29T11:02:50;99554.44;;;1.81;100.00
49843;BME280;55559;48.898;9.184;2023-01-29T11:05:21;99558.16;;;2.70;100.00
49843;BME280;55559;48.898;9.184;2023-01-29T11:07:54;99551.88;;;3.17;100.00
49843;BME280;55559;48.898;9.184;2023-01-29T11:10:26;99546.78;;;2.92;100.00
49843;BME280;55559;48.898;9.184;2023-01-29T11:12:56;99543.16;;;3.16;100.00
49843;BME280;55559;48.898;9.184;2023-01-29T11:15:28;99545.28;;;2.40;100.00
49843;BME280;55559;48.898;9.184;2023-01-29T11:18:05;99541.13;;;2.35;100.00
49843;BME280;55559;48.898;9.184;2023-01-29T11:20:35;99531.97;;;1.74;100.00
49843;BME280;55559;48.898;9.184;2023-01-29T11:23:03;99520.47;;;1.53;100.00
49843;BME280;55559;48.898;9.184;2023-01-29T11:25:30;99510.38;;;1.91;100.00
49843;BME280;55559;48.898;9.184;2023-01-29T11:27:59;99507.47;;;2.22;100.00
49843;BME280;55559;48.898;9.184;2023-01-29T11:30:29;99507.03;;;1.88;100.00
49843;BME280;55559;48.898;9.184;2023-01-29T11:33:11;99495.41;;;3.48;100.00
49843;BME280;55559;48.898;9.184;2023-01-29T11:35:45;99493.66;;;3.88;97.29
49843;BME280;55559;48.898;9.184;2023-01-29T11:38:21;99492.69;;;3.70;99.21
49843;BME280;55559;48.898;9.184;2023-01-29T11:40:49;99504.28;;;2.14;100.00
49843;BME280;55559;48.898;9.184;2023-01-29T11:43:38;99497.13;;;2.41;100.00
49843;BME280;55559;48.898;9.184;2023-01-29T11:46:10;99496.31;;;2.39;100.00
49843;BME280;55559;48.898;9.184;2023-01-29T11:48:41;99493.84;;;2.58;100.00
49843;BME280;55559;48.898;9.184;2023-01-29T11:51:11;99492.22;;;2.32;100.00
49843;BME280;55559;48.898;9.184;2023-01-29T11:53:51;99485.44;;;3.13;100.00
49843;BME280;55559;48.898;9.184;2023-01-29T11:56:21;99481.31;;;2.65;100.00
49843;BME280;55559;48.898;9.184;2023-01-29T11:58:50;99481.19;;;2.00;100.00
49843;BME280;55559;48.898;9.184;2023-01-29T12:01:29;99468.22;;;2.86;100.00
49843;BME280;55559;48.898;9.184;2023-01-29T12:03:59;99456.41;;;2.96;100.00
49843;BME280;55559;48.898;9.184;2023-01-29T12:06:31;99448.75;;;3.32;100.00
49843;BME280;55559;48.898;9.184;2023-01-29T12:09:01;99456.25;;;2.78;100.00
49843;BME280;55559;48.898;9.184;2023-01-29T12:11:34;99438.53;;;3.85;100.00
49843;BME280;55559;48.898;9.184;2023-01-29T12:14:04;99437.78;;;3.62;100.00
49843;BME280;55559;48.898;9.184;2023-01-29T12:16:36;99437.88;;;3.40;100.00
49843;BME280;55559;48.898;9.184;2023-01-29T12:19:14;99438.41;;;2.87;100.00
49843;BME280;55559;48.898;9.184;2023-01-29T12:21:46;99420.31;;;2.58;100.00
49843;BME280;55559;48.898;9.184;2023-01-29T12:24:27;99422.47;;;2.69;100.00
49843;BME280;55559;48.898;9.184;2023-01-29T12:27:01;99413.66;;;2.72;100.00
49843;BME280;55559;48.898;9.184;2023-01-29T12:29:36;99409.94;;;2.11;100.00
49843;BME280;55559;48.898;9.184;2023-01-29T12:32:17;99400.13;;;2.38;100.00
49843;BME280;55559;48.898;9.184;2023-01-29T12:34:54;99394.13;;;1.91;100.00
49843;BME280;55559;48.898;9.184;2023-01-29T12:37:26;99396.00;;;1.63;100.00
49843;BME280;55559;48.898;9.184;2023-01-29T12:39:56;99381.34;;;1.81;100.00
49843;BME280;55559;48.898;9.184;2023-01-29T12:42:24;99381.38;;;2.26;100.00
49843;BME280;55559;48.898;9.184;2023-01-29T12:44:55;99379.91;;;2.40;100.00
49843;BME280;55559;48.898;9.184;2023-01-29T12:47:28;99367.13;;;2.33;100.00
49843;BME280;55559;48.898;9.184;2023-01-29T12:50:01;99362.88;;;1.84;100.00
49843;BME280;55559;48.898;9.184;2023-01-29T12:52:36;99361.88;;;2.33;100.00
49843;BME280;55559;48.898;9.184;2023-01-29T12:55:10;99359.66;;;2.00;100.00
49843;BME280;55559;48.898;9.184;2023-01-29T12:57:46;99361.16;;;2.50;100.00
49843;BME280;55559;48.898;9.184;2023-01-29T13:00:19;99365.97;;;2.60;100.00
49843;BME280;55559;48.898;9.184;2023-01-29T13:02:54;99354.34;;;2.66;100.00
49843;BME280;55559;48.898;9.184;2023-01-29T13:05:26;99350.41;;;2.76;100.00
49843;BME280;55559;48.898;9.184;2023-01-29T13:08:00;99351.94;;;2.62;100.00
49843;BME280;55559;48.898;9.184;2023-01-29T13:10:41;99347.88;;;2.10;100.00
49843;BME280;55559;48.898;9.184;2023-01-29T13:13:14;99344.22;;;1.92;100.00
49843;BME280;55559;48.898;9.184;2023-01-29T13:15:44;99338.19;;;2.12;100.00
49843;BME280;55559;48.898;9.184;2023-01-29T13:18:32;99339.09;;;2.33;100.00
49843;BME280;55559;48.898;9.184;2023-01-29T13:21:05;99333.47;;;2.63;100.00
49843;BME280;55559;48.898;9.184;2023-01-29T13:23:41;99338.44;;;2.69;100.00